Time;durP1;ratioP1;P1;durP2;ratioP2;P2;SDS_P1;SDS_P2;PMS_P1;PMS_P2;Temp;Humidity;BMP_temperature;BMP_pressure;BME280_temperature;BME280_humidity;BME280_pressure;Samples;Min_cycle;Max_cycle;Signal;HPM_P1;HPM_P2
2024/02/15 00:00:45;;;;;;;43.30;24.10;;;;;;;5.02;68.25;97707.36;104662;1269;103608;-79
2024/02/15 00:04:11;;;;;;;42.50;21.90;;;;;;;5.00;68.34;97706.45;104613;1263;102502;-82
2024/02/15 00:07:22;;;;;;;39.10;21.40;;;;;;;4.96;68.43;97706.59;104608;1262;99892;-79
2024/02/15 00:10:11;;;;;;;40.60;21.40;;;;;;;4.96;68.27;97706.05;104648;1270;97942;-79
2024/02/15 00:13:16;;;;;;;46.10;21.90;;;;;;;4.97;68.30;97699.98;104632;1262;99515;-83
2024/02/15 00:16:23;;;;;;;40.00;21.40;;;;;;;4.99;68.51;97700.80;104675;1262;103152;-75
2024/02/15 00:19:00;;;;;;;42.60;22.70;;;;;;;5.03;68.49;97699.23;104670;1262;101524;-80
2024/02/15 00:21:52;;;;;;;42.70;23.80;;;;;;;5.03;68.36;97697.77;104641;1262;106888;-80
2024/02/15 00:24:59;;;;;;;52.50;23.40;;;;;;;5.04;68.41;97697.69;104651;1256;97977;-76
2024/02/15 00:27:56;;;;;;;42.90;22.30;;;;;;;5.04;68.44;97697.15;104563;1261;98393;-77
2024/02/15 00:30:39;;;;;;;47.70;24.90;;;;;;;5.06;68.43;97695.81;104665;1270;102572;-83
2024/02/15 00:33:46;;;;;;;46.40;25.40;;;;;;;5.10;68.65;97695.59;104561;1262;101152;-86
2024/02/15 00:36:16;;;;;;;51.50;25.60;;;;;;;5.09;68.87;97696.34;104672;1273;100068;-84
2024/02/15 00:39:22;;;;;;;49.00;25.20;;;;;;;5.08;68.71;97696.67;104679;1272;97953;-80
2024/02/15 00:42:08;;;;;;;47.00;25.30;;;;;;;5.06;68.78;97693.87;104646;1260;98342;-78
2024/02/15 00:45:05;;;;;;;43.80;25.30;;;;;;;5.04;68.85;97692.87;104694;1263;103586;-77
2024/02/15 00:48:03;;;;;;;45.60;23.90;;;;;;;5.02;68.90;97691.48;104668;1261;101143;-80
2024/02/15 00:50:43;;;;;;;42.40;23.50;;;;;;;5.02;69.08;97689.16;104596;1257;99727;-76
2024/02/15 00:53:30;;;;;;;49.40;24.90;;;;;;;5.02;69.13;97688.42;104657;1263;97957;-78
2024/02/15 00:55:58;;;;;;;49.70;22.20;;;;;;;5.02;69.08;97686.28;104659;1270;99791;-76
2024/02/15 00:59:05;;;;;;;39.00;20.70;;;;;;;5.02;68.87;97682.52;104669;1257;103480;-85
2024/02/15 01:02:12;;;;;;;40.80;21.40;;;;;;;5.02;68.97;97680.61;104598;1262;101237;-80
2024/02/15 01:04:53;;;;;;;36.80;19.90;;;;;;;4.98;68.90;97678.28;104631;1260;99833;-78
2024/02/15 01:07:51;;;;;;;40.10;21.20;;;;;;;4.98;68.94;97683.37;104625;1270;97941;-79
2024/02/15 01:10:48;;;;;;;41.90;20.20;;;;;;;4.94;69.10;97683.39;104597;1264;98453;-79
2024/02/15 01:13:44;;;;;;;37.40;20.20;;;;;;;4.92;69.11;97680.76;104643;1270;103750;-79
2024/02/15 01:16:50;;;;;;;37.40;20.70;;;;;;;4.92;69.28;97684.40;104637;1272;101331;-88
2024/02/15 01:19:29;;;;;;;39.90;20.90;;;;;;;4.90;69.18;97684.43;104631;1270;99918;-84
2024/02/15 01:22:04;;;;;;;39.50;20.50;;;;;;;4.89;69.39;97681.61;104621;1263;99285;-85
2024/02/15 01:24:40;;;;;;;40.80;22.10;;;;;;;4.87;69.38;97680.31;104704;1262;98376;-84
2024/02/15 01:27:40;;;;;;;39.20;20.70;;;;;;;4.87;69.34;97685.83;104704;1260;103659;-86
2024/02/15 01:30:32;;;;;;;41.50;22.30;;;;;;;4.86;69.45;97683.45;104627;1262;101151;-85
2024/02/15 01:33:21;;;;;;;39.20;20.20;;;;;;;4.83;69.53;97685.94;104338;1268;99702;-77
2024/02/15 01:36:27;;;;;;;27.40;15.50;;;;;;;4.82;69.55;97685.82;104600;1268;97951;-77
2024/02/15 01:38:59;;;;;;;38.20;19.50;;;;;;;4.84;69.78;97689.02;104659;1263;98369;-77
2024/02/15 01:42:02;;;;;;;32.50;17.50;;;;;;;4.84;69.81;97692.38;104667;1264;103522;-77
2024/02/15 01:44:52;;;;;;;28.00;14.40;;;;;;;4.84;69.88;97692.58;104617;1271;101711;-77
2024/02/15 01:47:35;;;;;;;22.60;13.40;;;;;;;4.84;69.83;97691.14;104604;1264;99906;-76
2024/02/15 01:50:02;;;;;;;;;;;;;;;4.84;69.84;97689.88;104613;1270;97968;-76
2024/02/15 01:52:59;;;;;;;19.10;10.30;;;;;;;4.84;69.84;97688.88;104650;1260;97916;-75
2024/02/15 01:55:51;;;;;;;22.90;10.70;;;;;;;4.85;69.64;97692.81;104614;1271;102609;-78
2024/02/15 01:58:32;;;;;;;20.20;11.20;;;;;;;4.89;69.66;97693.65;104591;1266;101326;-77
2024/02/15 02:01:21;;;;;;;23.60;11.70;;;;;;;4.88;69.77;97689.42;104684;1272;100238;-77
2024/02/15 02:03:50;;;;;;;23.20;12.00;;;;;;;4.92;69.85;97690.29;104674;1273;97898;-77
2024/02/15 02:06:36;;;;;;;37.50;12.30;;;;;;;4.96;69.98;97691.39;104642;1262;99227;-77
2024/02/15 02:09:05;;;;;;;29.30;12.90;;;;;;;4.96;70.08;97688.11;104672;1261;103825;-78
2024/02/15 02:12:12;;;;;;;29.30;12.40;;;;;;;4.96;70.12;97692.64;104615;1261;101319;-77
2024/02/15 02:15:11;;;;;;;22.10;11.90;;;;;;;4.96;70.08;97690.38;104658;1257;99890;-75
2024/02/15 02:18:09;;;;;;;19.60;12.20;;;;;;;4.98;70.15;97694.08;104666;1270;97908;-85
2024/02/15 02:20:57;;;;;;;18.20;10.70;;;;;;;4.96;70.27;97694.38;104624;1263;98457;-83
2024/02/15 02:23:37;;;;;;;20.00;11.30;;;;;;;4.94;70.32;97693.09;104704;1263;103617;-85
2024/02/15 02:26:11;;;;;;;19.60;11.70;;;;;;;4.94;70.38;97694.09;104568;1263;101491;-86
2024/02/15 02:29:10;;;;;;;20.20;11.90;;;;;;;4.96;70.55;97693.17;104584;1264;99713;-88
2024/02/15 02:32:07;;;;;;;20.70;10.00;;;;;;;4.98;70.57;97694.95;104635;1262;98833;-77
2024/02/15 02:34:57;;;;;;;23.00;9.70;;;;;;;5.01;70.59;97695.35;104605;1257;99569;-78
2024/02/15 02:38:03;;;;;;;20.90;11.30;;;;;;;5.03;70.53;97695.05;104706;1261;103460;-77
2024/02/15 02:40:33;;;;;;;21.40;10.60;;;;;;;5.08;70.55;97694.73;104680;1261;101345;-75
2024/02/15 02:43:26;;;;;;;21.70;10.70;;;;;;;5.09;70.76;97690.27;104637;1269;100116;-76
2024/02/15 02:46:32;;;;;;;18.20;9.90;;;;;;;5.07;70.84;97689.83;104597;1270;97905;-80
2024/02/15 02:49:39;;;;;;;21.30;10.40;;;;;;;5.05;70.93;97693.75;104527;1263;98374;-79
2024/02/15 02:52:08;;;;;;;18.50;10.60;;;;;;;5.07;71.04;97693.20;104643;1260;103627;-75
2024/02/15 02:54:56;;;;;;;23.60;10.80;;;;;;;5.08;71.02;97694.13;104664;1258;101346;-76
2024/02/15 02:57:25;;;;;;;21.60;10.40;;;;;;;5.10;71.30;97695.96;104600;1264;98005;-77
2024/02/15 03:00:32;;;;;;;20.60;10.80;;;;;;;5.09;71.39;97696.23;104552;1270;99278;-78
2024/02/15 03:03:01;;;;;;;21.60;11.40;;;;;;;5.07;71.43;97696.75;104560;1263;97944;-76
2024/02/15 03:05:40;;;;;;;24.70;11.50;;;;;;;5.08;71.41;97697.51;104651;1260;103535;-77
2024/02/15 03:08:29;;;;;;;25.00;12.00;;;;;;;5.12;71.25;97695.29;104603;1261;101015;-76
2024/02/15 03:11:27;;;;;;;24.70;11.80;;;;;;;5.12;71.28;97697.27;104625;1258;99780;-85
2024/02/15 03:13:58;;;;;;;22.20;11.70;;;;;;;5.10;71.37;97698.43;104591;1279;98046;-76
2024/02/15 03:16:47;;;;;;;27.60;13.10;;;;;;;5.10;71.43;97699.16;104706;1262;98430;-84
2024/02/15 03:19:55;;;;;;;27.30;16.00;;;;;;;5.12;71.37;97696.80;104665;1266;112083;-84
2024/02/15 03:22:39;;;;;;;33.40;16.90;;;;;;;5.12;71.44;97693.38;104628;1261;101308;-83
2024/02/15 03:25:23;;;;;;;41.20;21.20;;;;;;;5.12;71.53;97698.14;104677;1268;99973;-84
2024/02/15 03:28:07;;;;;;;42.50;20.50;;;;;;;5.14;71.55;97698.01;104707;1261;99216;-85
2024/02/15 03:30:42;;;;;;;36.30;18.80;;;;;;;5.14;71.80;97697.06;104632;1272;98440;-75
2024/02/15 03:33:40;;;;;;;47.60;24.50;;;;;;;5.13;71.73;97696.80;104709;1270;102620;-76
2024/02/15 03:36:16;;;;;;;49.70;26.70;;;;;;;5.13;71.68;97695.96;104723;1270;101637;-85
2024/02/15 03:39:13;;;;;;;46.70;25.40;;;;;;;5.15;71.66;97694.52;104622;1263;99997;-83
2024/02/15 03:42:01;;;;;;;39.70;20.80;;;;;;;5.15;71.78;97693.55;104559;1273;98876;-86
2024/02/15 03:44:36;;;;;;;38.10;18.90;;;;;;;5.16;71.76;97697.20;104647;1268;98536;-82
2024/02/15 03:47:05;;;;;;;29.10;16.60;;;;;;;5.16;71.69;97696.80;104623;1257;103729;-82
2024/02/15 03:50:14;;;;;;;29.70;16.80;;;;;;;5.17;71.65;97697.40;104594;1258;108024;-87
2024/02/15 03:53:20;;;;;;;28.30;17.20;;;;;;;5.18;71.94;97693.36;104653;1273;99963;-83
2024/02/15 03:56:21;;;;;;;31.00;16.40;;;;;;;5.17;72.00;97693.33;104615;1270;98882;-84
2024/02/15 03:59:26;;;;;;;31.10;17.60;;;;;;;5.15;72.02;97691.62;104657;1270;98373;-85
2024/02/15 04:02:35;;;;;;;28.40;17.30;;;;;;;5.13;72.02;97693.11;104734;1264;103825;-80
2024/02/15 04:05:42;;;;;;;29.30;16.30;;;;;;;5.10;72.08;97685.59;104612;1270;101311;-79
2024/02/15 04:08:39;;;;;;;23.40;14.30;;;;;;;5.08;72.02;97678.67;104617;1270;99057;-79
2024/02/15 04:11:25;;;;;;;23.00;12.30;;;;;;;5.08;72.05;97677.77;104580;1260;97957;-77
2024/02/15 04:14:11;;;;;;;21.40;12.10;;;;;;;5.08;72.04;97681.14;104649;1270;98477;-76
2024/02/15 04:16:51;;;;;;;19.80;10.70;;;;;;;5.08;71.97;97685.59;104591;1263;102336;-79
2024/02/15 04:19:57;;;;;;;20.60;10.80;;;;;;;5.08;72.01;97685.19;104575;1270;101941;-79
2024/02/15 04:22:27;;;;;;;16.50;10.30;;;;;;;5.07;72.07;97689.86;104583;1263;100234;-78
2024/02/15 04:25:16;;;;;;;18.80;10.70;;;;;;;5.06;72.09;97692.11;104724;1258;99284;-79
2024/02/15 04:28:23;;;;;;;21.80;11.50;;;;;;;5.06;72.24;97696.39;104692;1261;99237;-79
2024/02/15 04:31:01;;;;;;;17.20;11.10;;;;;;;5.06;72.31;97695.15;104839;1264;103640;-78
2024/02/15 04:33:36;;;;;;;21.40;11.60;;;;;;;5.05;72.41;97696.79;104611;1264;101355;-79
2024/02/15 04:36:22;;;;;;;25.30;13.20;;;;;;;5.06;72.58;97694.89;104620;1280;100169;-79
2024/02/15 04:38:55;;;;;;;21.90;12.20;;;;;;;5.06;72.48;97693.71;104382;1267;98855;-80
2024/02/15 04:41:55;;;;;;;37.20;16.00;;;;;;;5.04;72.54;97689.92;104396;1266;98228;-80
2024/02/15 04:45:03;;;;;;;31.40;14.90;;;;;;;5.04;72.60;97694.95;104444;1280;102693;-80
2024/02/15 04:48:01;;;;;;;34.90;14.40;;;;;;;5.04;72.61;97691.17;104510;1258;100412;-78
2024/02/15 04:50:34;;;;;;;29.60;13.90;;;;;;;5.05;72.61;97688.06;104568;1270;99470;-77
2024/02/15 04:53:41;;;;;;;23.50;12.60;;;;;;;5.07;72.67;97684.64;104646;1271;97909;-77
2024/02/15 04:56:28;;;;;;;28.90;13.40;;;;;;;5.10;72.61;97686.33;104672;1257;98518;-78
2024/02/15 04:59:15;;;;;;;32.90;14.90;;;;;;;5.12;72.60;97686.42;104736;1270;102281;-78
2024/02/15 05:02:12;;;;;;;23.90;13.40;;;;;;;5.14;72.57;97687.23;104693;1261;101423;-84
2024/02/15 05:04:50;;;;;;;23.80;12.10;;;;;;;5.14;72.61;97687.40;104566;1273;99992;-83
2024/02/15 05:07:50;;;;;;;23.50;12.10;;;;;;;5.14;72.74;97689.58;104673;1260;97953;-78
2024/02/15 05:10:26;;;;;;;22.60;12.70;;;;;;;5.14;72.71;97693.45;104718;1260;98366;-75
2024/02/15 05:13:33;;;;;;;36.20;15.50;;;;;;;5.14;72.73;97692.65;104642;1261;103676;-76
2024/02/15 05:16:19;;;;;;;33.40;15.50;;;;;;;5.14;72.86;97688.54;104613;1263;101627;-80
2024/02/15 05:18:57;;;;;;;31.10;14.90;;;;;;;5.15;72.87;97691.98;104580;1274;99096;-79
2024/02/15 05:22:06;;;;;;;31.30;16.00;;;;;;;5.14;72.84;97690.95;100771;1263;5396665;-79
2024/02/15 05:25:15;;;;;;;38.30;17.70;;;;;;;5.15;72.99;97692.35;104699;1260;110561;-78
2024/02/15 05:28:26;;;;;;;32.20;15.70;;;;;;;5.12;73.09;97698.84;104577;1260;101296;-77
2024/02/15 05:31:37;;;;;;;35.40;18.50;;;;;;;5.12;73.08;97700.55;104594;1262;100244;-76
2024/02/15 05:34:24;;;;;;;35.60;16.60;;;;;;;5.12;73.14;97699.23;104711;1256;97960;-78
2024/02/15 05:37:13;;;;;;;51.00;23.10;;;;;;;5.14;73.08;97698.91;104650;1256;99235;-76
2024/02/15 05:39:42;;;;;;;55.40;24.70;;;;;;;5.14;73.17;97700.29;104680;1270;103998;-77
2024/02/15 05:42:49;;;;;;;69.40;28.80;;;;;;;5.15;73.21;97699.27;104748;1257;101441;-78
2024/02/15 05:45:51;;;;;;;51.90;24.60;;;;;;;5.14;73.16;97701.85;104666;1270;100086;-84
2024/02/15 05:48:48;;;;;;;40.50;18.90;;;;;;;5.13;73.28;97705.73;104601;1260;99150;-79
2024/02/15 05:51:45;;;;;;;34.50;18.50;;;;;;;5.11;73.29;97705.99;104576;1262;98343;-79
2024/02/15 05:54:52;;;;;;;26.10;14.10;;;;;;;5.11;73.45;97706.46;104559;1263;103816;-80
2024/02/15 05:57:58;;;;;;;30.00;12.40;;;;;;;5.13;73.34;97711.65;104440;1265;100581;-80
2024/02/15 06:00:49;;;;;;;24.20;11.40;;;;;;;5.13;73.48;97716.43;104603;1270;99978;-78
2024/02/15 06:03:40;;;;;;;22.80;12.60;;;;;;;5.14;73.44;97717.54;104588;1260;99243;-78
2024/02/15 06:06:33;;;;;;;28.40;12.70;;;;;;;5.17;73.38;97725.98;104751;1256;98444;-85
2024/02/15 06:09:36;;;;;;;24.10;11.90;;;;;;;5.21;73.42;97721.64;104691;1262;103557;-83
2024/02/15 06:12:37;;;;;;;27.40;12.10;;;;;;;5.23;73.43;97721.40;104642;1263;101302;-88
2024/02/15 06:15:30;;;;;;;28.40;12.50;;;;;;;5.25;73.49;97724.91;104632;1272;100053;-83
2024/02/15 06:18:28;;;;;;;25.00;13.10;;;;;;;5.26;73.40;97725.15;104563;1261;99201;-79
2024/02/15 06:21:35;;;;;;;33.50;13.60;;;;;;;5.29;73.37;97729.63;104648;1256;98367;-78
2024/02/15 06:24:42;;;;;;;33.90;15.70;;;;;;;5.32;73.55;97732.15;104584;1266;103479;-76
2024/02/15 06:27:24;;;;;;;29.40;15.20;;;;;;;5.33;73.64;97738.08;104596;1260;101609;-87
2024/02/15 06:39:56;;;;;;;31.60;17.40;;;;;;;5.42;73.92;97746.21;104662;1260;103542;-77
2024/02/15 06:42:26;;;;;;;37.50;18.90;;;;;;;5.43;73.90;97746.46;104638;1273;101375;-81
2024/02/15 06:45:35;;;;;;;44.50;24.80;;;;;;;5.42;73.82;97747.95;104669;1264;99040;-79
2024/02/15 06:48:26;;;;;;;41.40;21.60;;;;;;;5.43;73.85;97752.66;104593;1274;98053;-79
2024/02/15 06:51:13;;;;;;;35.60;20.00;;;;;;;5.45;73.76;97753.70;104665;1261;98378;-79
2024/02/15 06:54:19;;;;;;;31.80;15.20;;;;;;;5.50;73.77;97757.98;104500;1265;111539;-79
2024/02/15 06:57:20;;;;;;;30.70;16.80;;;;;;;5.54;73.95;97755.38;104671;1261;101690;-79
2024/02/15 07:00:30;;;;;;;25.90;14.10;;;;;;;5.56;73.93;97754.61;104613;1256;100320;-77
2024/02/15 07:03:37;;;;;;;27.70;15.90;;;;;;;5.58;73.84;97752.24;104640;1263;97903;-84
2024/02/15 07:06:47;;;;;;;29.40;15.60;;;;;;;5.62;73.89;97753.81;104631;1260;98424;-83
2024/02/15 07:09:44;;;;;;;32.90;15.10;;;;;;;5.66;74.03;97753.91;104592;1258;103193;-84
2024/02/15 07:12:44;;;;;;;35.70;15.60;;;;;;;5.69;74.15;97751.54;104611;1261;101359;-83
2024/02/15 07:15:37;;;;;;;32.10;16.80;;;;;;;5.73;74.08;97747.84;104578;1261;99063;-84
2024/02/15 07:18:27;;;;;;;35.70;18.70;;;;;;;5.80;73.99;97750.42;104610;1262;99177;-84
2024/02/15 07:21:34;;;;;;;25.40;15.60;;;;;;;5.86;74.01;97748.71;104638;1261;98409;-84
2024/02/15 07:24:41;;;;;;;28.40;15.50;;;;;;;5.90;74.01;97743.63;104676;1264;103368;-81
2024/02/15 07:27:34;;;;;;;26.40;14.20;;;;;;;5.95;73.88;97746.28;104655;1270;101644;-79
2024/02/15 07:30:24;;;;;;;26.60;15.00;;;;;;;6.00;73.77;97742.02;104570;1261;99548;-81
2024/02/15 07:33:14;;;;;;;25.20;14.20;;;;;;;6.05;73.88;97743.28;104661;1260;99080;-79
2024/02/15 07:35:56;;;;;;;23.00;14.00;;;;;;;6.11;73.85;97738.85;104658;1260;98352;-81
2024/02/15 07:39:03;;;;;;;32.30;14.90;;;;;;;6.19;73.79;97741.38;104668;1260;103118;-76
2024/02/15 07:41:52;;;;;;;38.30;18.50;;;;;;;6.28;73.79;97741.88;104606;1261;101484;-78
2024/02/15 07:44:59;;;;;;;65.20;35.10;;;;;;;6.35;73.75;97741.20;104586;1262;100187;-79
2024/02/15 07:47:49;;;;;;;65.70;34.60;;;;;;;6.42;73.65;97744.16;104679;1261;97938;-84
2024/02/15 07:50:48;;;;;;;55.70;30.70;;;;;;;6.50;73.43;97745.66;104628;1262;98407;-84
2024/02/15 07:53:55;;;;;;;35.00;20.50;;;;;;;6.59;73.26;97753.79;104681;1260;103825;-86
2024/02/15 07:56:42;;;;;;;39.00;21.40;;;;;;;6.66;73.13;97752.77;104623;1261;100574;-84
2024/02/15 07:59:49;;;;;;;26.40;15.60;;;;;;;6.75;72.99;97751.02;104651;1256;99987;-77
2024/02/15 08:02:34;;;;;;;22.70;13.30;;;;;;;6.82;72.85;97746.51;104654;1262;99233;-80
2024/02/15 08:05:41;;;;;;;29.10;15.00;;;;;;;6.89;72.65;97741.95;104638;1260;98418;-81
2024/02/15 08:08:31;;;;;;;28.40;13.50;;;;;;;6.99;72.61;97742.41;104624;1257;103287;-80
2024/02/15 08:11:39;;;;;;;26.10;13.20;;;;;;;7.09;72.63;97741.84;104633;1256;101116;-79
2024/02/15 08:14:46;;;;;;;22.70;11.50;;;;;;;7.18;72.45;97743.33;104690;1271;99969;-79
2024/02/15 08:17:54;;;;;;;22.60;11.80;;;;;;;7.27;72.33;97744.84;104612;1263;98019;-78
2024/02/15 08:20:56;;;;;;;24.80;13.80;;;;;;;7.32;72.02;97742.29;104217;1270;99695;-76
2024/02/15 08:24:05;;;;;;;28.40;14.70;;;;;;;7.36;71.91;97741.45;104207;1268;103832;-76
2024/02/15 08:27:16;;;;;;;30.50;14.40;;;;;;;7.41;71.93;97743.20;104041;1278;101486;-75
2024/02/15 08:29:47;;;;;;;18.90;11.30;;;;;;;7.47;71.76;97745.30;103976;1268;106871;-75
2024/02/15 08:32:54;;;;;;;25.50;13.50;;;;;;;7.50;71.65;97744.48;104200;1268;98225;-81
2024/02/15 08:35:36;;;;;;;19.40;10.90;;;;;;;7.55;71.53;97750.14;104210;1267;98538;-76
2024/02/15 08:38:37;;;;;;;22.50;11.10;;;;;;;7.61;71.47;97753.06;104203;1271;103608;-80
2024/02/15 08:41:34;;;;;;;19.20;10.70;;;;;;;7.66;71.31;97752.55;104364;1268;101451;-76
2024/02/15 08:44:34;;;;;;;21.00;11.80;;;;;;;7.71;71.24;97754.63;104248;1278;100039;-77
2024/02/15 08:47:41;;;;;;;24.10;12.50;;;;;;;7.77;71.21;97755.45;104273;1267;98053;-79
2024/02/15 08:50:48;;;;;;;21.70;11.30;;;;;;;7.82;71.16;97753.21;104202;1279;99578;-77
2024/02/15 08:53:38;;;;;;;19.60;11.30;;;;;;;7.87;71.00;97754.52;104171;1269;102433;-78
2024/02/15 08:56:45;;;;;;;18.80;11.00;;;;;;;7.92;70.73;97752.89;104200;1268;100582;-79
2024/02/15 08:59:39;;;;;;;20.50;12.10;;;;;;;7.97;70.54;97751.70;104130;1271;108619;-77
2024/02/15 09:02:40;;;;;;;20.90;12.30;;;;;;;8.01;70.18;97750.56;104104;1270;99479;-76
2024/02/15 09:05:37;;;;;;;20.40;12.80;;;;;;;8.03;70.01;97746.16;104171;1268;98458;-76
2024/02/15 09:08:44;;;;;;;22.20;12.40;;;;;;;8.08;70.24;97745.40;103952;1274;102637;-76
2024/02/15 09:11:51;;;;;;;22.60;13.50;;;;;;;8.14;70.01;97745.89;104166;1268;101196;-75
2024/02/15 09:14:58;;;;;;;21.30;12.40;;;;;;;8.21;70.10;97745.52;104135;1270;100143;-77
2024/02/15 09:18:09;;;;;;;21.80;11.70;;;;;;;8.27;69.99;97751.56;103995;1283;98080;-77
2024/02/15 09:21:15;;;;;;;21.40;10.90;;;;;;;8.31;69.79;97755.61;104130;1271;98452;-77
2024/02/15 09:24:25;;;;;;;18.10;10.60;;;;;;;8.36;69.51;97757.00;104011;1281;103657;-79
2024/02/15 09:27:32;;;;;;;16.50;9.90;;;;;;;8.42;69.33;97754.71;104179;1270;100574;-77
2024/02/15 09:30:27;;;;;;;18.80;9.80;;;;;;;8.48;69.19;97749.56;104031;1267;99196;-76
2024/02/15 09:33:34;;;;;;;23.70;10.30;;;;;;;8.56;69.42;97746.10;104118;1269;98456;-76
2024/02/15 09:36:24;;;;;;;16.50;9.70;;;;;;;8.62;69.17;97745.79;104286;1270;98444;-76
2024/02/15 09:39:13;;;;;;;;;;;;;;;8.69;69.37;97748.55;104593;1257;103576;-77
2024/02/15 09:42:20;;;;;;;15.20;9.30;;;;;;;8.77;69.05;97749.76;104648;1261;101855;-77
2024/02/15 09:45:18;;;;;;;17.30;9.40;;;;;;;8.85;68.62;97752.69;104564;1265;99965;-77
2024/02/15 09:48:25;;;;;;;16.90;9.20;;;;;;;8.93;68.38;97750.13;104622;1268;98986;-76
2024/02/15 09:51:32;;;;;;;15.60;8.40;;;;;;;9.02;68.15;97744.01;104628;1256;98406;-76
2024/02/15 09:54:24;;;;;;;15.10;8.40;;;;;;;9.13;68.03;97744.67;104654;1257;103774;-82
2024/02/15 09:57:11;;;;;;;;;;;;;;;9.23;67.82;97743.98;104653;1279;101656;-80
2024/02/15 10:00:18;;;;;;;17.60;9.00;;;;;;;9.29;67.55;97740.45;104561;1264;99889;-79
2024/02/15 10:03:17;;;;;;;16.40;9.30;;;;;;;9.36;67.29;97740.05;104625;1279;98005;-76
2024/02/15 10:06:17;;;;;;;14.00;8.90;;;;;;;9.45;67.17;97738.21;104627;1260;98390;-78
2024/02/15 10:09:15;;;;;;;15.90;9.40;;;;;;;9.56;67.16;97734.23;104673;1274;103793;-78
2024/02/15 10:12:22;;;;;;;15.40;8.80;;;;;;;9.67;66.91;97731.73;104452;1267;101988;-79
2024/02/15 10:15:30;;;;;;;15.20;8.40;;;;;;;9.79;66.77;97728.77;104585;1256;99944;-76
2024/02/15 10:18:38;;;;;;;11.10;7.80;;;;;;;9.90;66.40;97722.52;104656;1261;97943;-77
2024/02/15 10:21:46;;;;;;;16.30;8.30;;;;;;;10.00;66.23;97714.99;104633;1261;98412;-76
2024/02/15 10:24:46;;;;;;;15.60;9.40;;;;;;;10.15;66.19;97711.33;104644;1257;102122;-76
2024/02/15 10:27:52;;;;;;;18.00;9.70;;;;;;;10.28;65.62;97712.73;104600;1260;101419;-76
2024/02/15 10:30:50;;;;;;;17.20;8.70;;;;;;;10.43;65.46;97707.95;104591;1261;100233;-76
2024/02/15 10:34:00;;;;;;;17.10;8.40;;;;;;;10.65;65.30;97701.71;104541;1262;97988;-77
2024/02/15 10:36:59;;;;;;;16.90;7.80;;;;;;;11.03;65.31;97698.31;104254;1268;98400;-77
2024/02/15 10:40:00;;;;;;;15.10;7.70;;;;;;;11.48;64.80;97695.94;104155;1268;103609;-76
2024/02/15 10:42:57;;;;;;;12.10;7.30;;;;;;;11.92;64.04;97686.49;104222;1271;101427;-77
2024/02/15 10:46:04;;;;;;;15.90;8.50;;;;;;;12.39;63.72;97683.64;104211;1280;99017;-78
2024/02/15 10:48:51;;;;;;;16.60;8.00;;;;;;;12.85;62.98;97686.08;104221;1267;98020;-76
2024/02/15 10:51:58;;;;;;;13.30;7.30;;;;;;;13.14;61.89;97683.59;104256;1268;99544;-77
2024/02/15 10:55:13;;;;;;;11.80;6.70;;;;;;;13.35;61.51;97680.35;104242;1263;103319;-83
2024/02/15 10:58:06;;;;;;;10.80;6.10;;;;;;;13.51;60.20;97682.53;103717;1276;101372;-79
2024/02/15 11:01:15;;;;;;;10.70;6.20;;;;;;;13.61;59.58;97674.89;103745;1273;100132;-80
2024/02/15 11:04:25;;;;;;;11.90;6.10;;;;;;;13.85;59.70;97671.55;103109;1283;99377;-81
2024/02/15 11:07:15;;;;;;;10.00;6.00;;;;;;;14.17;59.22;97668.68;103137;1282;99585;-80
2024/02/15 11:10:16;;;;;;;10.60;6.00;;;;;;;14.32;57.81;97664.71;103118;1281;103563;-77
2024/02/15 11:13:23;;;;;;;9.30;5.90;;;;;;;14.46;56.96;97661.87;103223;1282;100438;-78
2024/02/15 11:16:30;;;;;;;9.10;5.60;;;;;;;14.70;56.57;97654.23;103700;1270;98783;-78
2024/02/15 11:19:52;;;;;;;9.80;6.00;;;;;;;15.09;56.76;97651.45;103634;1274;98122;-83
2024/02/15 11:22:53;;;;;;;10.00;5.60;;;;;;;15.45;55.70;97646.91;103274;1279;98129;-82
2024/02/15 11:26:00;;;;;;;8.30;5.40;;;;;;;15.75;55.27;97640.92;103292;1279;103837;-81
2024/02/15 11:29:07;;;;;;;7.70;4.00;;;;;;;16.07;54.29;97642.65;103109;1282;102938;-82
2024/02/15 11:32:15;;;;;;;5.20;3.80;;;;;;;16.25;52.82;97639.70;102703;1287;100076;-79
2024/02/15 11:35:25;;;;;;;6.10;3.70;;;;;;;16.30;51.59;97633.02;102932;1276;98070;-80
2024/02/15 11:38:33;;;;;;;6.00;4.10;;;;;;;16.42;51.70;97634.91;102968;1284;98676;-79
2024/02/15 11:41:26;;;;;;;6.60;4.20;;;;;;;16.67;52.10;97636.23;102547;1288;103855;-79
2024/02/15 11:47:37;;;;;;;6.30;3.60;;;;;;;17.19;51.35;97632.39;101772;1297;109705;-77
2024/02/15 11:50:25;;;;;;;6.20;3.50;;;;;;;17.35;50.70;97633.97;101988;1302;97970;-82
2024/02/15 11:53:46;;;;;;;6.40;4.00;;;;;;;17.52;50.06;97629.81;101990;1288;98171;-79
2024/02/15 11:56:47;;;;;;;9.50;4.00;;;;;;;17.72;50.15;97629.90;102023;1294;102754;-80
2024/02/15 12:18:41;;;;;;;6.00;3.40;;;;;;;17.90;48.98;97620.70;102286;1285;101834;-79
2024/02/15 12:20:45;;;;;;;17.40;8.90;;;;;;;18.29;46.63;97606.17;104141;1268;98995;-77
2024/02/15 12:23:52;;;;;;;12.10;5.90;;;;;;;18.23;46.88;97610.92;104471;1264;99328;-76
2024/02/15 12:26:34;;;;;;;6.00;2.90;;;;;;;18.35;46.68;97608.10;104654;1261;99349;-77
2024/02/15 12:29:41;;;;;;;5.00;2.00;;;;;;;18.47;46.45;97601.44;104681;1262;102204;-80
2024/02/15 12:32:25;;;;;;;2.80;1.90;;;;;;;18.50;46.38;97599.98;104647;1262;101329;-85
2024/02/15 12:35:29;;;;;;;4.20;2.40;;;;;;;18.52;45.71;97599.59;104663;1260;100012;-85
2024/02/15 12:38:46;;;;;;;3.50;2.60;;;;;;;18.55;45.83;97605.06;104671;1262;97944;-84
2024/02/15 12:41:27;;;;;;;4.60;2.50;;;;;;;18.72;45.88;97603.21;104618;1261;98959;-85
2024/02/15 12:44:37;;;;;;;7.30;3.30;;;;;;;18.86;45.46;97599.57;104672;1260;103671;-85
2024/02/15 12:47:24;;;;;;;17.30;7.80;;;;;;;18.89;44.60;97600.48;104431;1267;101229;-77
2024/02/15 12:50:34;;;;;;;4.20;3.20;;;;;;;18.78;44.78;97598.80;104582;1261;99912;-77
2024/02/15 12:53:42;;;;;;;2.40;2.10;;;;;;;18.80;45.06;97593.13;104605;1276;97976;-76
2024/02/15 12:56:48;;;;;;;4.50;2.60;;;;;;;18.88;45.19;97594.13;104608;1267;98427;-78
2024/02/15 12:59:46;;;;;;;5.60;3.10;;;;;;;19.05;44.45;97592.41;104609;1257;103310;-77
2024/02/15 13:02:53;;;;;;;6.10;3.20;;;;;;;19.10;43.93;97590.36;104686;1256;101361;-78
2024/02/15 13:06:00;;;;;;;7.00;3.70;;;;;;;19.11;44.36;97587.48;104656;1261;100156;-78
2024/02/15 13:09:12;;;;;;;6.80;3.70;;;;;;;19.12;43.47;97581.75;104552;1263;99156;-80
2024/02/15 13:12:12;;;;;;;5.40;3.30;;;;;;;19.17;43.46;97576.64;104662;1256;97922;-78
2024/02/15 13:15:26;;;;;;;3.80;2.40;;;;;;;19.24;43.04;97574.49;104715;1258;103608;-77
2024/02/15 13:18:34;;;;;;;4.00;2.20;;;;;;;19.28;43.27;97572.73;104767;1261;101336;-77
2024/02/15 13:21:39;;;;;;;4.40;2.30;;;;;;;19.38;43.10;97571.27;104555;1262;99908;-78
2024/02/15 13:24:30;;;;;;;4.00;2.20;;;;;;;19.42;42.51;97572.23;104577;1262;98927;-77
2024/02/15 13:27:12;;;;;;;4.30;2.40;;;;;;;19.42;43.05;97567.09;104566;1256;98328;-86
2024/02/15 13:30:09;;;;;;;5.30;2.40;;;;;;;19.52;42.83;97567.34;104714;1272;103829;-86
2024/02/15 13:33:14;;;;;;;9.20;2.60;;;;;;;19.51;42.01;97564.85;104595;1269;100445;-85
2024/02/15 13:36:24;;;;;;;3.30;2.10;;;;;;;19.47;42.14;97560.76;104692;1262;99561;-86
2024/02/15 13:39:13;;;;;;;4.20;2.70;;;;;;;19.51;42.11;97562.67;104639;1262;99167;-83
2024/02/15 13:42:07;;;;;;;5.10;2.90;;;;;;;19.45;41.85;97560.96;104630;1262;99228;-85
2024/02/15 13:44:48;;;;;;;3.90;2.60;;;;;;;19.34;41.96;97557.77;104654;1275;103708;-80
2024/02/15 13:47:39;;;;;;;3.50;2.50;;;;;;;19.27;41.91;97553.89;104661;1262;101341;-76
2024/02/15 13:50:46;;;;;;;3.50;2.60;;;;;;;19.16;42.15;97554.09;104615;1262;99132;-77
2024/02/15 13:53:29;;;;;;;2.90;2.20;;;;;;;19.22;42.37;97555.94;104624;1261;99128;-77
2024/02/15 13:56:09;;;;;;;3.50;2.50;;;;;;;19.25;42.26;97556.89;104680;1262;98456;-77
2024/02/15 13:58:41;;;;;;;4.40;3.20;;;;;;;19.27;42.34;97559.21;104691;1262;103563;-77